sensor_id;sensor_type;location;lat;lon;timestamp;pressure;altitude;pressure_sealevel;temperature;humidity
42247;BME280;27913;42.722;23.268;2022-11-04T00:00:20;95173.78;;;12.62;62.60
42247;BME280;27913;42.722;23.268;2022-11-04T00:02:48;95124.69;;;12.18;62.58
42247;BME280;27913;42.722;23.268;2022-11-04T00:05:13;94909.56;;;10.75;62.96
42247;BME280;27913;42.722;23.268;2022-11-04T00:07:39;95176.88;;;12.30;63.79
42247;BME280;27913;42.722;23.268;2022-11-04T00:10:23;95064.06;;;11.54;63.59
42247;BME280;27913;42.722;23.268;2022-11-04T00:13:09;94924.44;;;10.61;63.14
42247;BME280;27913;42.722;23.268;2022-11-04T00:15:37;95174.94;;;12.10;64.04
42247;BME280;27913;42.722;23.268;2022-11-04T00:18:21;95165.06;;;12.19;63.85
42247;BME280;27913;42.722;23.268;2022-11-04T00:20:47;95173.91;;;12.11;64.09
42247;BME280;27913;42.722;23.268;2022-11-04T00:23:31;94956.06;;;10.68;63.78
42247;BME280;27913;42.722;23.268;2022-11-04T00:26:15;95171.97;;;11.98;64.14
42247;BME280;27913;42.722;23.268;2022-11-04T00:28:59;95155.84;;;11.86;64.52
42247;BME280;27913;42.722;23.268;2022-11-04T00:31:25;95169.94;;;12.00;64.53
42247;BME280;27913;42.722;23.268;2022-11-04T00:34:09;95156.22;;;12.05;64.16
42247;BME280;27913;42.722;23.268;2022-11-04T00:36:34;95154.63;;;12.11;64.24
42247;BME280;27913;42.722;23.268;2022-11-04T00:39:00;95062.84;;;11.57;63.84
42247;BME280;27913;42.722;23.268;2022-11-04T00:41:25;94949.03;;;10.75;63.82
42247;BME280;27913;42.722;23.268;2022-11-04T00:43:52;95158.84;;;12.05;63.91
42247;BME280;27913;42.722;23.268;2022-11-04T00:46:18;95158.22;;;12.03;64.26
42247;BME280;27913;42.722;23.268;2022-11-04T00:48:44;95149.34;;;11.82;63.94
42247;BME280;27913;42.722;23.268;2022-11-04T00:51:09;95138.56;;;11.77;64.37
42247;BME280;27913;42.722;23.268;2022-11-04T00:53:35;94940.72;;;10.50;64.47
42247;BME280;27913;42.722;23.268;2022-11-04T00:56:00;95149.16;;;11.83;64.45
42247;BME280;27913;42.722;23.268;2022-11-04T00:58:27;95138.63;;;11.83;64.28
42247;BME280;27913;42.722;23.268;2022-11-04T01:03:28;95033.75;;;11.15;64.34
42247;BME280;27913;42.722;23.268;2022-11-04T01:05:56;94939.25;;;10.47;64.41
42247;BME280;27913;42.722;23.268;2022-11-04T01:08:22;95021.31;;;11.02;64.57
42247;BME280;27913;42.722;23.268;2022-11-04T01:10:47;95022.06;;;10.95;64.55
42247;BME280;27913;42.722;23.268;2022-11-04T01:13:13;95127.88;;;11.56;64.71
42247;BME280;27913;42.722;23.268;2022-11-04T01:15:39;95065.78;;;11.18;64.98
42247;BME280;27913;42.722;23.268;2022-11-04T01:18:05;95118.53;;;11.54;65.16
42247;BME280;27913;42.722;23.268;2022-11-04T01:20:31;95123.81;;;11.54;64.90
42247;BME280;27913;42.722;23.268;2022-11-04T01:22:57;95062.97;;;11.20;64.86
42247;BME280;27913;42.722;23.268;2022-11-04T01:25:23;95112.69;;;11.58;65.04
42247;BME280;27913;42.722;23.268;2022-11-04T01:27:49;95119.97;;;11.56;64.80
42247;BME280;27913;42.722;23.268;2022-11-04T01:30:14;95110.63;;;11.54;64.75
42247;BME280;27913;42.722;23.268;2022-11-04T01:32:40;95112.66;;;11.52;64.92
42247;BME280;27913;42.722;23.268;2022-11-04T01:35:06;95109.00;;;11.53;65.42
42247;BME280;27913;42.722;23.268;2022-11-04T01:37:32;95074.59;;;11.32;65.10
42247;BME280;27913;42.722;23.268;2022-11-04T01:39:57;95062.91;;;11.13;64.67
42247;BME280;27913;42.722;23.268;2022-11-04T01:42:23;95120.09;;;11.48;64.68
42247;BME280;27913;42.722;23.268;2022-11-04T01:44:51;95062.78;;;10.99;65.66
42247;BME280;27913;42.722;23.268;2022-11-04T01:47:28;94946.56;;;10.30;65.79
42247;BME280;27913;42.722;23.268;2022-11-04T01:50:16;95059.59;;;11.04;66.19
42247;BME280;27913;42.722;23.268;2022-11-04T01:52:49;95069.00;;;11.14;65.73
42247;BME280;27913;42.722;23.268;2022-11-04T01:55:16;95103.47;;;11.19;66.03
42247;BME280;27913;42.722;23.268;2022-11-04T01:57:46;95056.81;;;10.69;67.06
42247;BME280;27913;42.722;23.268;2022-11-04T02:00:13;95047.16;;;10.76;67.11
42247;BME280;27913;42.722;23.268;2022-11-04T02:05:21;95077.00;;;10.83;66.79
42247;BME280;27913;42.722;23.268;2022-11-04T02:07:51;94928.44;;;9.98;66.78
42247;BME280;27913;42.722;23.268;2022-11-04T02:10:19;95042.66;;;10.70;67.10
42247;BME280;27913;42.722;23.268;2022-11-04T02:12:45;95097.25;;;11.05;66.18
42247;BME280;27913;42.722;23.268;2022-11-04T02:15:14;95082.81;;;10.79;66.55
42247;BME280;27913;42.722;23.268;2022-11-04T02:23:47;95080.97;;;10.94;67.18
42247;BME280;27913;42.722;23.268;2022-11-04T02:31:50;95080.13;;;10.94;66.56
42247;BME280;27913;42.722;23.268;2022-11-04T02:40:25;95031.25;;;10.62;66.48
42247;BME280;27913;42.722;23.268;2022-11-04T02:42:56;94985.66;;;10.18;67.33
42247;BME280;27913;42.722;23.268;2022-11-04T02:48:04;95024.69;;;10.36;67.88
42247;BME280;27913;42.722;23.268;2022-11-04T02:50:38;95079.81;;;10.82;68.23
42247;BME280;27913;42.722;23.268;2022-11-04T02:53:11;94930.97;;;9.91;67.26
42247;BME280;27913;42.722;23.268;2022-11-04T02:55:43;95086.19;;;10.72;67.54
42247;BME280;27913;42.722;23.268;2022-11-04T02:58:35;94938.25;;;9.74;68.07
42247;BME280;27913;42.722;23.268;2022-11-04T03:01:04;95058.03;;;10.51;68.34
42247;BME280;27913;42.722;23.268;2022-11-04T03:03:37;95024.44;;;10.31;67.62
42247;BME280;27913;42.722;23.268;2022-11-04T03:06:05;94875.66;;;9.41;67.45
42247;BME280;27913;42.722;23.268;2022-11-04T03:08:36;95022.34;;;10.26;67.97
42247;BME280;27913;42.722;23.268;2022-11-04T03:11:17;94998.34;;;10.14;67.55
42247;BME280;27913;42.722;23.268;2022-11-04T03:14:04;95067.06;;;10.63;68.29
42247;BME280;27913;42.722;23.268;2022-11-04T03:16:59;94883.16;;;9.44;68.10
42247;BME280;27913;42.722;23.268;2022-11-04T03:19:43;95016.88;;;10.28;68.47
42247;BME280;27913;42.722;23.268;2022-11-04T03:22:16;94826.09;;;9.01;68.38
42247;BME280;27913;42.722;23.268;2022-11-04T03:24:43;94999.00;;;10.01;68.32
42247;BME280;27913;42.722;23.268;2022-11-04T03:27:24;95017.19;;;10.18;68.51
42247;BME280;27913;42.722;23.268;2022-11-04T03:30:05;95025.72;;;10.20;68.77
42247;BME280;27913;42.722;23.268;2022-11-04T03:35:22;95071.25;;;10.43;69.44
42247;BME280;27913;42.722;23.268;2022-11-04T03:37:49;95025.44;;;10.00;68.88
42247;BME280;27913;42.722;23.268;2022-11-04T03:40:16;95024.00;;;9.97;69.63
42247;BME280;27913;42.722;23.268;2022-11-04T03:42:47;95021.75;;;9.94;69.98
42247;BME280;27913;42.722;23.268;2022-11-04T03:45:14;95011.25;;;9.79;70.15
42247;BME280;27913;42.722;23.268;2022-11-04T03:47:40;95020.09;;;9.93;71.08
42247;BME280;27913;42.722;23.268;2022-11-04T03:50:38;94953.22;;;9.59;70.71
42247;BME280;27913;42.722;23.268;2022-11-04T03:53:04;94980.09;;;9.76;69.93
42247;BME280;27913;42.722;23.268;2022-11-04T04:03:45;95008.50;;;10.02;69.55
42247;BME280;27913;42.722;23.268;2022-11-04T04:06:19;94890.50;;;9.34;68.84
42247;BME280;27913;42.722;23.268;2022-11-04T04:08:53;95058.50;;;10.39;69.43
42247;BME280;27913;42.722;23.268;2022-11-04T04:11:40;95053.69;;;10.43;69.02
42247;BME280;27913;42.722;23.268;2022-11-04T04:14:31;95061.94;;;10.40;69.60
42247;BME280;27913;42.722;23.268;2022-11-04T04:17:28;94991.84;;;9.95;69.08
42247;BME280;27913;42.722;23.268;2022-11-04T04:20:03;95067.00;;;10.42;69.68
42247;BME280;27913;42.722;23.268;2022-11-04T04:22:39;95062.72;;;10.41;69.86
42247;BME280;27913;42.722;23.268;2022-11-04T04:25:08;95014.41;;;10.05;69.51
42247;BME280;27913;42.722;23.268;2022-11-04T04:27:56;94965.81;;;9.78;70.45
42247;BME280;27913;42.722;23.268;2022-11-04T04:30:22;94947.69;;;9.69;70.00
42247;BME280;27913;42.722;23.268;2022-11-04T04:32:59;94804.38;;;8.77;69.89
42247;BME280;27913;42.722;23.268;2022-11-04T04:35:34;95002.63;;;10.00;70.28
42247;BME280;27913;42.722;23.268;2022-11-04T04:38:14;95005.44;;;9.99;70.75
42247;BME280;27913;42.722;23.268;2022-11-04T04:41:09;95013.22;;;10.07;71.21
42247;BME280;27913;42.722;23.268;2022-11-04T04:43:57;95050.34;;;10.34;70.71
42247;BME280;27913;42.722;23.268;2022-11-04T04:46:42;94822.47;;;8.87;70.28
42247;BME280;27913;42.722;23.268;2022-11-04T04:49:09;95020.03;;;10.01;71.06
42247;BME280;27913;42.722;23.268;2022-11-04T04:51:38;95061.50;;;10.36;70.95
42247;BME280;27913;42.722;23.268;2022-11-04T04:54:05;95058.22;;;10.34;71.94
42247;BME280;27913;42.722;23.268;2022-11-04T04:56:31;95005.91;;;9.87;70.88
42247;BME280;27913;42.722;23.268;2022-11-04T04:58:56;95009.72;;;9.85;71.46
42247;BME280;27913;42.722;23.268;2022-11-04T05:01:22;95010.53;;;9.85;71.63
42247;BME280;27913;42.722;23.268;2022-11-04T05:03:48;95079.81;;;10.14;71.51
42247;BME280;27913;42.722;23.268;2022-11-04T05:06:13;95066.13;;;10.04;71.81
42247;BME280;27913;42.722;23.268;2022-11-04T05:08:39;95072.13;;;10.13;72.35
42247;BME280;27913;42.722;23.268;2022-11-04T05:11:04;95012.25;;;9.78;72.33
42247;BME280;27913;42.722;23.268;2022-11-04T05:13:30;95063.41;;;10.12;71.28
42247;BME280;27913;42.722;23.268;2022-11-04T05:16:07;95063.03;;;10.15;71.23
42247;BME280;27913;42.722;23.268;2022-11-04T05:18:34;94890.03;;;9.00;70.74
42247;BME280;27913;42.722;23.268;2022-11-04T05:21:07;95071.28;;;10.12;71.44
42247;BME280;27913;42.722;23.268;2022-11-04T05:23:33;95078.53;;;10.10;71.09
42247;BME280;27913;42.722;23.268;2022-11-04T05:25:59;95025.53;;;9.61;70.63
42247;BME280;27913;42.722;23.268;2022-11-04T05:28:25;95087.34;;;10.02;71.83
42247;BME280;27913;42.722;23.268;2022-11-04T05:30:51;95083.97;;;9.94;72.21
42247;BME280;27913;42.722;23.268;2022-11-04T05:33:16;95084.16;;;9.92;71.63
42247;BME280;27913;42.722;23.268;2022-11-04T05:35:42;95094.31;;;9.95;71.82
42247;BME280;27913;42.722;23.268;2022-11-04T05:38:07;95094.22;;;9.88;72.09
42247;BME280;27913;42.722;23.268;2022-11-04T05:40:33;95019.28;;;9.47;71.71
42247;BME280;27913;42.722;23.268;2022-11-04T05:42:58;94939.25;;;8.98;71.72
42247;BME280;27913;42.722;23.268;2022-11-04T05:45:25;95066.13;;;9.74;72.16
42247;BME280;27913;42.722;23.268;2022-11-04T05:48:02;94979.00;;;9.25;71.41
42247;BME280;27913;42.722;23.268;2022-11-04T05:50:29;95106.44;;;9.96;71.55
42247;BME280;27913;42.722;23.268;2022-11-04T05:52:59;95059.50;;;9.63;71.88
42247;BME280;27913;42.722;23.268;2022-11-04T05:55:25;95076.25;;;9.77;72.38
42247;BME280;27913;42.722;23.268;2022-11-04T05:57:52;95084.16;;;9.92;73.94
42247;BME280;27913;42.722;23.268;2022-11-04T06:00:22;95102.56;;;10.07;72.49
42247;BME280;27913;42.722;23.268;2022-11-04T06:02:47;95109.28;;;10.10;72.22
42247;BME280;27913;42.722;23.268;2022-11-04T06:05:13;95090.97;;;10.01;72.82
42247;BME280;27913;42.722;23.268;2022-11-04T06:07:38;95107.72;;;10.15;73.14
42247;BME280;27913;42.722;23.268;2022-11-04T06:10:04;95101.75;;;10.22;73.62
42247;BME280;27913;42.722;23.268;2022-11-04T06:12:29;95103.81;;;10.26;73.58
42247;BME280;27913;42.722;23.268;2022-11-04T06:14:55;95109.53;;;10.30;73.94
42247;BME280;27913;42.722;23.268;2022-11-04T06:17:21;95108.63;;;10.38;74.28
42247;BME280;27913;42.722;23.268;2022-11-04T06:19:47;95112.78;;;10.47;74.32
42247;BME280;27913;42.722;23.268;2022-11-04T06:22:15;95111.63;;;10.50;74.67
42247;BME280;27913;42.722;23.268;2022-11-04T06:24:41;95100.16;;;10.58;74.75
42247;BME280;27913;42.722;23.268;2022-11-04T06:27:08;95060.66;;;10.36;74.73
42247;BME280;27913;42.722;23.268;2022-11-04T06:29:34;95110.03;;;10.71;74.81
42247;BME280;27913;42.722;23.268;2022-11-04T06:32:11;95115.31;;;10.71;74.94
42247;BME280;27913;42.722;23.268;2022-11-04T06:34:38;94833.59;;;9.04;75.31
42247;BME280;27913;42.722;23.268;2022-11-04T06:37:04;95108.75;;;10.82;76.10
42247;BME280;27913;42.722;23.268;2022-11-04T06:39:29;95116.84;;;10.80;76.23
42247;BME280;27913;42.722;23.268;2022-11-04T06:41:55;95118.75;;;10.71;75.96
42247;BME280;27913;42.722;23.268;2022-11-04T06:44:21;95120.75;;;10.69;76.95
42247;BME280;27913;42.722;23.268;2022-11-04T06:46:46;95115.94;;;10.73;76.26
42247;BME280;27913;42.722;23.268;2022-11-04T06:49:15;95074.25;;;10.39;76.78
42247;BME280;27913;42.722;23.268;2022-11-04T06:51:43;95112.28;;;10.74;77.43
42247;BME280;27913;42.722;23.268;2022-11-04T06:54:09;94879.19;;;9.33;78.62
42247;BME280;27913;42.722;23.268;2022-11-04T06:56:35;95114.19;;;10.80;78.84
42247;BME280;27913;42.722;23.268;2022-11-04T06:59:00;95102.34;;;10.91;78.75
42247;BME280;27913;42.722;23.268;2022-11-04T07:01:28;94981.94;;;10.27;78.25
42247;BME280;27913;42.722;23.268;2022-11-04T07:03:55;95102.31;;;11.06;78.69
42247;BME280;27913;42.722;23.268;2022-11-04T07:06:21;95108.09;;;11.17;77.97
42247;BME280;27913;42.722;23.268;2022-11-04T07:08:48;94990.75;;;10.57;77.81
42247;BME280;27913;42.722;23.268;2022-11-04T07:11:15;95096.69;;;11.31;77.61
42247;BME280;27913;42.722;23.268;2022-11-04T07:13:41;94833.34;;;9.66;77.88
42247;BME280;27913;42.722;23.268;2022-11-04T07:16:07;94842.19;;;9.80;77.77
42247;BME280;27913;42.722;23.268;2022-11-04T07:18:34;95095.41;;;11.27;78.71
42247;BME280;27913;42.722;23.268;2022-11-04T07:20:59;95093.41;;;11.29;78.85
42247;BME280;27913;42.722;23.268;2022-11-04T07:23:25;95085.09;;;11.26;79.13
42247;BME280;27913;42.722;23.268;2022-11-04T07:25:51;95085.38;;;11.38;79.27
42247;BME280;27913;42.722;23.268;2022-11-04T07:28:19;95074.72;;;11.46;78.97
42247;BME280;27913;42.722;23.268;2022-11-04T07:30:44;95071.97;;;11.54;78.50
42247;BME280;27913;42.722;23.268;2022-11-04T07:33:10;95068.25;;;11.48;78.77
42247;BME280;27913;42.722;23.268;2022-11-04T07:35:35;94996.47;;;11.11;78.56
42247;BME280;27913;42.722;23.268;2022-11-04T07:38:01;95068.97;;;11.64;78.43
42247;BME280;27913;42.722;23.268;2022-11-04T07:40:28;94861.22;;;10.48;77.31
42247;BME280;27913;42.722;23.268;2022-11-04T07:42:54;95060.75;;;11.81;76.93
42247;BME280;27913;42.722;23.268;2022-11-04T07:45:20;95053.25;;;11.78;76.38
42247;BME280;27913;42.722;23.268;2022-11-04T07:47:45;95060.34;;;11.77;76.59
42247;BME280;27913;42.722;23.268;2022-11-04T07:50:11;95067.28;;;11.85;76.41
42247;BME280;27913;42.722;23.268;2022-11-04T07:52:37;94903.22;;;10.92;75.63
42247;BME280;27913;42.722;23.268;2022-11-04T07:55:03;94875.38;;;10.75;76.02
42247;BME280;27913;42.722;23.268;2022-11-04T07:57:29;95046.03;;;11.93;75.73
42247;BME280;27913;42.722;23.268;2022-11-04T07:59:55;94795.16;;;10.36;75.46
42247;BME280;27913;42.722;23.268;2022-11-04T08:02:20;95058.66;;;11.98;75.68
42247;BME280;27913;42.722;23.268;2022-11-04T08:04:46;95051.22;;;12.08;75.80
42247;BME280;27913;42.722;23.268;2022-11-04T08:07:12;95049.84;;;12.19;75.87
42247;BME280;27913;42.722;23.268;2022-11-04T08:09:37;95050.69;;;12.27;75.64
42247;BME280;27913;42.722;23.268;2022-11-04T08:12:04;95034.31;;;12.31;75.82
42247;BME280;27913;42.722;23.268;2022-11-04T08:14:29;95035.75;;;12.41;75.96
42247;BME280;27913;42.722;23.268;2022-11-04T08:16:55;94937.22;;;11.93;75.85
42247;BME280;27913;42.722;23.268;2022-11-04T08:19:20;94980.13;;;12.22;75.87
42247;BME280;27913;42.722;23.268;2022-11-04T08:21:46;95028.06;;;12.53;75.94
42247;BME280;27913;42.722;23.268;2022-11-04T08:24:11;94777.81;;;11.06;75.77
42247;BME280;27913;42.722;23.268;2022-11-04T08:26:37;95020.00;;;12.68;75.31
42247;BME280;27913;42.722;23.268;2022-11-04T08:29:07;94777.28;;;11.24;74.87
42247;BME280;27913;42.722;23.268;2022-11-04T08:31:34;95028.56;;;12.77;74.93
42247;BME280;27913;42.722;23.268;2022-11-04T08:33:59;94775.50;;;11.31;74.49
42247;BME280;27913;42.722;23.268;2022-11-04T08:36:34;95004.59;;;12.92;73.54
42247;BME280;27913;42.722;23.268;2022-11-04T08:39:01;94993.63;;;12.95;73.42
42247;BME280;27913;42.722;23.268;2022-11-04T08:41:29;94773.75;;;11.59;73.66
42247;BME280;27913;42.722;23.268;2022-11-04T08:43:57;94903.47;;;12.44;73.33
42247;BME280;27913;42.722;23.268;2022-11-04T08:46:26;95004.81;;;13.11;73.25
42247;BME280;27913;42.722;23.268;2022-11-04T08:48:52;95001.38;;;13.17;72.81
42247;BME280;27913;42.722;23.268;2022-11-04T08:51:20;95007.28;;;13.12;72.55
42247;BME280;27913;42.722;23.268;2022-11-04T08:53:46;94996.91;;;13.18;72.41
42247;BME280;27913;42.722;23.268;2022-11-04T08:56:24;95002.97;;;13.25;72.49
42247;BME280;27913;42.722;23.268;2022-11-04T08:58:51;94995.66;;;13.34;71.98
42247;BME280;27913;42.722;23.268;2022-11-04T09:01:18;94914.66;;;12.93;71.31
42247;BME280;27913;42.722;23.268;2022-11-04T09:03:43;94757.19;;;11.99;71.21
42247;BME280;27913;42.722;23.268;2022-11-04T09:06:13;94808.34;;;12.39;70.74
42247;BME280;27913;42.722;23.268;2022-11-04T09:08:39;94778.34;;;12.33;70.32
42247;BME280;27913;42.722;23.268;2022-11-04T09:11:10;94968.44;;;13.60;70.54
42247;BME280;27913;42.722;23.268;2022-11-04T09:13:36;94968.03;;;13.57;70.15
42247;BME280;27913;42.722;23.268;2022-11-04T09:16:03;94839.56;;;12.83;70.23
42247;BME280;27913;42.722;23.268;2022-11-04T09:18:29;94721.75;;;12.15;69.99
42247;BME280;27913;42.722;23.268;2022-11-04T09:20:58;94936.94;;;13.59;70.12
42247;BME280;27913;42.722;23.268;2022-11-04T09:23:24;94954.97;;;13.82;70.15
42247;BME280;27913;42.722;23.268;2022-11-04T09:25:50;94957.97;;;13.93;69.49
42247;BME280;27913;42.722;23.268;2022-11-04T09:28:16;94827.88;;;13.31;68.89
42247;BME280;27913;42.722;23.268;2022-11-04T09:30:41;94940.88;;;14.02;69.02
42247;BME280;27913;42.722;23.268;2022-11-04T09:33:07;94726.94;;;12.76;68.02
42247;BME280;27913;42.722;23.268;2022-11-04T09:35:33;94778.16;;;13.21;67.51
42247;BME280;27913;42.722;23.268;2022-11-04T09:37:59;94933.00;;;14.28;66.52
42247;BME280;27913;42.722;23.268;2022-11-04T09:40:26;94932.97;;;14.34;66.90
42247;BME280;27913;42.722;23.268;2022-11-04T09:46:00;94918.91;;;14.41;67.07
42247;BME280;27913;42.722;23.268;2022-11-04T09:48:48;94853.31;;;14.17;66.99
42247;BME280;27913;42.722;23.268;2022-11-04T09:51:13;94913.47;;;14.61;66.35
42247;BME280;27913;42.722;23.268;2022-11-04T09:53:47;94883.38;;;14.55;66.19
42247;BME280;27913;42.722;23.268;2022-11-04T09:56:22;94696.94;;;13.56;66.05
42247;BME280;27913;42.722;23.268;2022-11-04T09:58:50;94820.44;;;14.39;65.42
42247;BME280;27913;42.722;23.268;2022-11-04T10:01:34;94704.50;;;13.77;64.46
42247;BME280;27913;42.722;23.268;2022-11-04T10:04:17;94881.63;;;15.00;64.03
42247;BME280;27913;42.722;23.268;2022-11-04T10:09:53;94792.44;;;14.49;64.09
42247;BME280;27913;42.722;23.268;2022-11-04T10:12:51;94792.94;;;14.65;63.77
42247;BME280;27913;42.722;23.268;2022-11-04T10:15:46;94748.25;;;14.31;62.72
42247;BME280;27913;42.722;23.268;2022-11-04T10:18:47;94754.06;;;14.40;63.37
42247;BME280;27913;42.722;23.268;2022-11-04T10:21:26;94822.72;;;14.86;62.88
42247;BME280;27913;42.722;23.268;2022-11-04T10:24:06;94799.72;;;14.80;63.12
42247;BME280;27913;42.722;23.268;2022-11-04T10:29:03;94845.03;;;15.16;62.97
42247;BME280;27913;42.722;23.268;2022-11-04T10:31:30;94839.28;;;15.19;62.38
42247;BME280;27913;42.722;23.268;2022-11-04T10:34:04;94778.31;;;14.88;62.25
42247;BME280;27913;42.722;23.268;2022-11-04T10:36:34;94650.16;;;14.14;61.85
42247;BME280;27913;42.722;23.268;2022-11-04T10:39:02;94809.06;;;15.27;60.86
42247;BME280;27913;42.722;23.268;2022-11-04T10:41:33;94809.19;;;15.32;59.85
42247;BME280;27913;42.722;23.268;2022-11-04T10:44:05;94665.81;;;14.53;59.57
42247;BME280;27913;42.722;23.268;2022-11-04T10:51:52;94785.19;;;15.45;58.66
42247;BME280;27913;42.722;23.268;2022-11-04T10:54:18;94786.72;;;15.53;58.40
42247;BME280;27913;42.722;23.268;2022-11-04T10:56:48;94696.06;;;15.02;58.64
42247;BME280;27913;42.722;23.268;2022-11-04T11:01:55;94767.72;;;15.56;59.69
42247;BME280;27913;42.722;23.268;2022-11-04T11:04:27;94712.44;;;15.29;59.00
42247;BME280;27913;42.722;23.268;2022-11-04T11:06:54;94662.94;;;15.11;58.97
42247;BME280;27913;42.722;23.268;2022-11-04T11:09:24;94748.91;;;15.77;58.14
42247;BME280;27913;42.722;23.268;2022-11-04T11:11:56;94746.00;;;15.78;57.74
42247;BME280;27913;42.722;23.268;2022-11-04T11:16:52;94550.13;;;14.79;58.12
42247;BME280;27913;42.722;23.268;2022-11-04T11:19:25;94536.47;;;14.82;57.37
42247;BME280;27913;42.722;23.268;2022-11-04T11:21:52;94728.13;;;16.16;55.91
42247;BME280;27913;42.722;23.268;2022-11-04T11:26:49;94712.00;;;16.30;55.52
42247;BME280;27913;42.722;23.268;2022-11-04T11:29:34;94699.88;;;16.34;55.66
42247;BME280;27913;42.722;23.268;2022-11-04T11:32:06;94696.56;;;16.39;54.83
42247;BME280;27913;42.722;23.268;2022-11-04T11:34:43;94691.00;;;16.40;53.70
42247;BME280;27913;42.722;23.268;2022-11-04T11:37:20;94684.06;;;16.39;53.42
42247;BME280;27913;42.722;23.268;2022-11-04T11:39:47;94675.91;;;16.41;53.82
42247;BME280;27913;42.722;23.268;2022-11-04T11:42:13;94637.94;;;16.16;53.47
42247;BME280;27913;42.722;23.268;2022-11-04T11:44:50;94675.66;;;16.54;53.33
42247;BME280;27913;42.722;23.268;2022-11-04T11:47:33;94671.84;;;16.50;52.96
42247;BME280;27913;42.722;23.268;2022-11-04T11:50:18;94583.97;;;15.99;52.68
42247;BME280;27913;42.722;23.268;2022-11-04T11:52:46;94621.94;;;16.23;52.23
42247;BME280;27913;42.722;23.268;2022-11-04T11:55:22;94660.75;;;16.53;52.49
42247;BME280;27913;42.722;23.268;2022-11-04T12:00:49;94573.84;;;16.20;51.52
42247;BME280;27913;42.722;23.268;2022-11-04T12:03:28;94610.00;;;16.50;50.97
42247;BME280;27913;42.722;23.268;2022-11-04T12:06:06;94632.59;;;16.64;51.29
42247;BME280;27913;42.722;23.268;2022-11-04T12:21:16;94560.22;;;16.28;50.78
42247;BME280;27913;42.722;23.268;2022-11-04T12:23:23;94633.03;;;16.73;51.21
42247;BME280;27913;42.722;23.268;2022-11-04T12:37:34;94474.22;;;16.00;50.62
42247;BME280;27913;42.722;23.268;2022-11-04T12:51:07;94555.63;;;16.94;49.81
42247;BME280;27913;42.722;23.268;2022-11-04T12:56:25;94600.72;;;17.35;49.69
42247;BME280;27913;42.722;23.268;2022-11-04T13:04:53;94384.38;;;15.74;49.52
42247;BME280;27913;42.722;23.268;2022-11-04T13:07:32;94594.56;;;17.17;49.46
42247;BME280;27913;42.722;23.268;2022-11-04T13:10:05;94593.75;;;17.17;49.81
42247;BME280;27913;42.722;23.268;2022-11-04T13:12:37;94527.69;;;16.62;49.47
42247;BME280;27913;42.722;23.268;2022-11-04T13:15:21;94431.47;;;15.84;49.59
42247;BME280;27913;42.722;23.268;2022-11-04T13:17:52;94507.03;;;16.23;49.63
42247;BME280;27913;42.722;23.268;2022-11-04T13:20:24;94602.66;;;16.81;49.78
42247;BME280;27913;42.722;23.268;2022-11-04T13:22:52;94442.00;;;15.67;50.23
42247;BME280;27913;42.722;23.268;2022-11-04T13:25:30;94437.03;;;15.70;49.95
42247;BME280;27913;42.722;23.268;2022-11-04T13:27:58;94621.78;;;16.83;50.04
42247;BME280;27913;42.722;23.268;2022-11-04T13:38:53;94520.72;;;16.44;50.31
42247;BME280;27913;42.722;23.268;2022-11-04T13:41:41;94558.84;;;16.66;50.67
42247;BME280;27913;42.722;23.268;2022-11-04T13:46:52;94497.91;;;16.30;51.60
42247;BME280;27913;42.722;23.268;2022-11-04T13:49:26;94595.66;;;16.92;51.75
42247;BME280;27913;42.722;23.268;2022-11-04T13:52:06;94595.75;;;16.97;51.35
42247;BME280;27913;42.722;23.268;2022-11-04T13:54:42;94586.53;;;17.00;51.43
42247;BME280;27913;42.722;23.268;2022-11-04T13:57:17;94507.31;;;16.50;51.73
42247;BME280;27913;42.722;23.268;2022-11-04T14:18:36;94537.97;;;16.87;51.69
42247;BME280;27913;42.722;23.268;2022-11-04T14:21:09;94551.75;;;17.01;51.82
42247;BME280;27913;42.722;23.268;2022-11-04T14:23:38;94412.28;;;16.06;51.69
42247;BME280;27913;42.722;23.268;2022-11-04T14:26:08;94383.28;;;15.87;52.09
42247;BME280;27913;42.722;23.268;2022-11-04T14:28:35;94591.69;;;17.07;52.64
42247;BME280;27913;42.722;23.268;2022-11-04T14:31:05;94457.56;;;16.28;52.64
42247;BME280;27913;42.722;23.268;2022-11-04T14:33:52;94395.84;;;15.80;52.97
42247;BME280;27913;42.722;23.268;2022-11-04T14:39:18;94590.25;;;16.87;53.42
42247;BME280;27913;42.722;23.268;2022-11-04T14:41:49;94538.91;;;16.52;53.38
42247;BME280;27913;42.722;23.268;2022-11-04T14:47:25;94587.06;;;16.73;54.19
42247;BME280;27913;42.722;23.268;2022-11-04T14:50:00;94466.28;;;15.88;54.63
42247;BME280;27913;42.722;23.268;2022-11-04T14:52:31;94575.81;;;16.53;54.97
42247;BME280;27913;42.722;23.268;2022-11-04T14:57:43;94482.53;;;16.03;54.70
42247;BME280;27913;42.722;23.268;2022-11-04T15:00:36;94465.81;;;15.91;54.99
42247;BME280;27913;42.722;23.268;2022-11-04T15:05:36;94565.84;;;16.32;55.23
42247;BME280;27913;42.722;23.268;2022-11-04T15:11:13;94570.50;;;16.00;56.15
42247;BME280;27913;42.722;23.268;2022-11-04T15:13:48;94540.06;;;15.67;56.67
42247;BME280;27913;42.722;23.268;2022-11-04T15:16:20;94561.72;;;15.88;56.51
42247;BME280;27913;42.722;23.268;2022-11-04T15:18:46;94557.56;;;15.92;56.48
42247;BME280;27913;42.722;23.268;2022-11-04T15:21:12;94564.25;;;15.82;56.97
42247;BME280;27913;42.722;23.268;2022-11-04T15:23:43;94456.06;;;15.07;56.82
42247;BME280;27913;42.722;23.268;2022-11-04T15:26:25;94518.50;;;15.51;56.87
42247;BME280;27913;42.722;23.268;2022-11-04T15:28:52;94568.53;;;15.72;57.12
42247;BME280;27913;42.722;23.268;2022-11-04T15:31:21;94559.97;;;15.69;57.26
42247;BME280;27913;42.722;23.268;2022-11-04T15:33:50;94489.69;;;15.19;57.40
42247;BME280;27913;42.722;23.268;2022-11-04T15:36:19;94575.19;;;15.62;57.43